Dexter, Ohio
Current Conditions -  °F | °C
As of 1:55 AM on Monday 22 Dec 2014 (Local Time) from KUNI Reporting Station
Clear Clear  
Wind Chill: 24°   Ceiling: Unl
Heat Index: 24°   Visibility: 7mi
Dew Point: 21°   Wind: 0mph
Humidity: 91%   Direction: NA
Pressure: 30.11"   Gusts: NA
Location:  39.0632°N, 82.2522°W
Report Text: KUNI 220655Z AUTO 00000KT 7SM CLR M05/M06 A3011 RMK AO2 T10471060
Loading
Personal Weather Stations






























Interactive Weather Map New forecast layout! Learn more

10-Day Weather Forecast

Advertisements
Track Severe Weather on mobile